Time;durP1;ratioP1;P1;durP2;ratioP2;P2;SDS_P1;SDS_P2;PMS_P1;PMS_P2;Temp;Humidity;BMP_temperature;BMP_pressure;BME280_temperature;BME280_humidity;BME280_pressure;Samples;Min_cycle;Max_cycle;Signal;HPM_P1;HPM_P2
2023/05/20 00:01:06;;;;;;;6.58;5.75;;;;;;;17.42;71.78;101089.66;1715767;84;21023;-62
2023/05/20 00:03:35;;;;;;;5.92;5.30;;;;;;;17.39;71.88;101092.34;1634688;87;21037;-62
2023/05/20 00:06:06;;;;;;;6.67;5.50;;;;;;;17.38;71.94;101089.27;1634095;86;21090;-61
2023/05/20 00:08:37;;;;;;;8.28;5.30;;;;;;;17.36;71.96;101086.41;1635367;87;21157;-62
2023/05/20 00:11:08;;;;;;;8.50;5.12;;;;;;;17.34;71.94;101089.95;1639596;87;21089;-62
2023/05/20 00:13:38;;;;;;;8.98;4.80;;;;;;;17.32;72.04;101087.40;1632382;87;21634;-61
2023/05/20 00:16:07;;;;;;;7.55;5.75;;;;;;;17.31;72.04;101084.31;1566539;91;21126;-62
2023/05/20 00:18:36;;;;;;;8.98;5.40;;;;;;;17.30;72.02;101085.39;1569963;90;21115;-61
2023/05/20 00:21:07;;;;;;;5.83;5.00;;;;;;;17.27;72.12;101088.61;1588396;87;21083;-61
2023/05/20 00:23:36;;;;;;;6.95;5.42;;;;;;;17.25;72.11;101083.83;1646693;87;21466;-60
2023/05/20 00:26:05;;;;;;;8.33;5.30;;;;;;;17.24;72.16;101089.06;1647940;87;21138;-62
2023/05/20 00:28:34;;;;;;;6.87;5.08;;;;;;;17.24;72.18;101081.29;1647943;87;21118;-62
2023/05/20 00:31:04;;;;;;;8.73;5.58;;;;;;;17.19;72.17;101091.66;1647748;87;21457;-61
2023/05/20 00:33:36;;;;;;;7.80;5.03;;;;;;;17.11;72.23;101083.09;1644558;83;21018;-60
2023/05/20 00:36:06;;;;;;;6.60;5.25;;;;;;;17.09;72.44;101084.38;1693344;83;21064;-61
2023/05/20 00:38:36;;;;;;;6.72;5.20;;;;;;;17.08;72.52;101084.07;1675893;86;21036;-61
2023/05/20 00:41:05;;;;;;;6.30;5.22;;;;;;;17.07;72.57;101091.53;1675934;86;21008;-61
2023/05/20 00:43:35;;;;;;;8.33;5.40;;;;;;;17.07;72.51;101089.30;1693299;84;21076;-61
2023/05/20 00:46:05;;;;;;;9.58;5.42;;;;;;;17.05;72.54;101090.05;1675821;85;21044;-61
2023/05/20 00:48:42;;;;;;;9.63;5.85;;;;;;;17.03;72.55;101092.20;1677269;84;21550;-62
2023/05/20 00:51:13;;;;;;;7.92;5.00;;;;;;;17.01;72.61;101088.27;1651703;84;21036;-61
2023/05/20 00:53:42;;;;;;;8.15;5.30;;;;;;;17.00;72.60;101082.95;1654319;86;21076;-61
2023/05/20 00:56:13;;;;;;;6.60;4.97;;;;;;;17.00;72.72;101087.11;1693531;83;21083;-61
2023/05/20 00:58:42;;;;;;;6.92;5.28;;;;;;;16.98;72.73;101086.48;1654706;86;21079;-61
2023/05/20 01:01:13;;;;;;;7.65;5.03;;;;;;;16.96;72.84;101080.32;1694209;83;21020;-60
2023/05/20 01:03:43;;;;;;;8.48;5.42;;;;;;;16.95;72.83;101078.63;1654714;86;21566;-62
2023/05/20 01:06:13;;;;;;;6.10;5.15;;;;;;;16.95;72.80;101079.47;1673608;85;21508;-61
2023/05/20 01:08:42;;;;;;;7.05;5.12;;;;;;;16.91;72.83;101071.30;1675863;85;21059;-61
2023/05/20 01:11:17;;;;;;;6.47;5.08;;;;;;;16.92;72.90;101074.38;1693273;83;21488;-61
2023/05/20 01:13:51;;;;;;;6.92;4.67;;;;;;;16.92;72.87;101077.69;1677066;84;21468;-61
2023/05/20 01:16:20;;;;;;;8.05;4.90;;;;;;;16.85;72.95;101074.93;1664224;85;21066;-62
2023/05/20 01:18:49;;;;;;;7.30;5.00;;;;;;;16.85;73.07;101072.70;1673908;86;21044;-62
2023/05/20 01:21:19;;;;;;;6.62;5.08;;;;;;;16.84;73.17;101071.84;1673671;86;21020;-60
2023/05/20 01:23:50;;;;;;;7.42;5.30;;;;;;;16.84;73.17;101078.77;1652711;86;21051;-62
2023/05/20 01:26:20;;;;;;;7.92;5.10;;;;;;;16.82;73.17;101073.99;1673766;86;21020;-61
2023/05/20 01:28:50;;;;;;;6.37;5.10;;;;;;;16.82;73.18;101080.91;1673922;85;21090;-62
2023/05/20 01:31:26;;;;;;;8.98;4.72;;;;;;;16.84;73.16;101080.16;1673867;86;21024;-61
2023/05/20 01:33:57;;;;;;;9.05;5.17;;;;;;;16.86;73.09;101075.78;1630722;86;21048;-61
2023/05/20 01:36:27;;;;;;;8.33;5.17;;;;;;;16.85;72.94;101076.31;1653253;86;21068;-61
2023/05/20 01:38:56;;;;;;;6.45;5.10;;;;;;;16.84;72.99;101079.30;1673886;86;21071;-61
2023/05/20 01:41:26;;;;;;;7.53;4.83;;;;;;;16.79;72.96;101068.90;1673790;86;21413;-62
2023/05/20 01:43:55;;;;;;;7.78;4.87;;;;;;;16.79;73.06;101074.44;1652787;86;21095;-61
2023/05/20 01:46:26;;;;;;;5.83;4.92;;;;;;;16.73;73.08;101077.55;1673808;85;21004;-61
2023/05/20 01:48:56;;;;;;;7.80;4.72;;;;;;;16.69;73.16;101083.75;1673772;84;21538;-63
2023/05/20 01:51:26;;;;;;;9.58;5.25;;;;;;;16.67;73.21;101078.44;1673890;86;21076;-62
2023/05/20 01:53:55;;;;;;;6.40;4.45;;;;;;;16.68;73.25;101082.91;1673743;86;21082;-61
2023/05/20 01:56:26;;;;;;;7.33;4.60;;;;;;;16.69;73.19;101092.05;1594574;89;21083;-63
2023/05/20 01:58:56;;;;;;;5.42;4.12;;;;;;;16.65;73.07;101085.23;1587730;90;21143;-62
2023/05/20 02:01:25;;;;;;;8.10;4.92;;;;;;;16.59;73.08;101084.20;1594712;89;21563;-62
2023/05/20 02:03:55;;;;;;;7.25;4.50;;;;;;;16.57;73.13;101084.95;1587580;90;21565;-61
2023/05/20 02:06:25;;;;;;;7.97;4.78;;;;;;;16.56;73.10;101087.41;1574118;90;21141;-61
2023/05/20 02:08:56;;;;;;;7.95;4.72;;;;;;;16.57;72.89;101085.48;1594618;90;21115;-62
2023/05/20 02:11:26;;;;;;;7.03;4.70;;;;;;;16.55;72.79;101088.48;1594529;89;21088;-62
2023/05/20 02:13:55;;;;;;;7.72;4.60;;;;;;;16.53;72.77;101089.23;1606270;86;21062;-61
2023/05/20 02:16:25;;;;;;;5.78;4.35;;;;;;;16.53;72.65;101089.23;1678956;83;21532;-61
2023/05/20 02:18:57;;;;;;;7.37;4.80;;;;;;;16.52;72.48;101083.38;1685310;84;21078;-61
2023/05/20 02:21:26;;;;;;;6.12;4.30;;;;;;;16.49;72.33;101088.83;1715583;84;21046;-61
2023/05/20 02:23:55;;;;;;;5.80;4.42;;;;;;;16.47;72.23;101085.96;1715351;84;21074;-60
2023/05/20 02:26:25;;;;;;;6.80;4.25;;;;;;;16.45;72.24;101082.56;1715383;82;21054;-60
2023/05/20 02:28:55;;;;;;;7.00;4.00;;;;;;;16.44;72.09;101082.25;1715584;84;21524;-61
2023/05/20 02:31:24;;;;;;;5.28;4.12;;;;;;;16.43;71.99;101087.47;1715443;82;21090;-61
2023/05/20 02:33:53;;;;;;;7.08;4.05;;;;;;;16.42;71.90;101092.16;1715325;82;21114;-61
2023/05/20 02:36:22;;;;;;;5.78;4.37;;;;;;;16.41;71.93;101088.22;1715548;84;21047;-61
2023/05/20 02:38:55;;;;;;;6.00;4.33;;;;;;;16.40;71.79;101093.44;1715319;84;21046;-61
2023/05/20 02:41:23;;;;;;;7.05;4.12;;;;;;;16.39;71.71;101091.74;1715495;84;21103;-61
2023/05/20 02:43:53;;;;;;;6.55;4.05;;;;;;;16.34;71.52;101092.94;1715613;83;21094;-61
2023/05/20 02:46:22;;;;;;;5.45;4.10;;;;;;;16.28;71.58;101100.72;1715600;84;21462;-62
2023/05/20 02:48:51;;;;;;;5.42;4.05;;;;;;;16.26;71.55;101102.33;1715833;84;21058;-62
2023/05/20 02:51:21;;;;;;;6.00;4.00;;;;;;;16.26;71.55;101105.63;1715384;83;21078;-61
2023/05/20 02:53:50;;;;;;;4.58;3.65;;;;;;;16.26;71.38;101105.63;1715443;82;21278;-62
2023/05/20 02:56:20;;;;;;;5.12;3.90;;;;;;;16.24;71.29;101114.64;1693319;83;21074;-61
2023/05/20 02:58:50;;;;;;;5.50;4.28;;;;;;;16.24;71.13;101114.64;1715383;82;21070;-61
2023/05/20 03:01:19;;;;;;;5.97;4.03;;;;;;;16.18;70.97;101125.50;1693479;83;21043;-62
2023/05/20 03:03:49;;;;;;;6.12;3.85;;;;;;;16.14;71.02;101118.70;1715269;84;21058;-61
2023/05/20 03:06:19;;;;;;;7.33;4.40;;;;;;;16.13;71.05;101121.16;1693634;84;21055;-62
2023/05/20 03:08:48;;;;;;;11.25;4.15;;;;;;;16.16;71.01;101115.19;1715295;84;21066;-59
2023/05/20 03:11:18;;;;;;;7.12;3.67;;;;;;;16.21;70.68;101113.16;1717345;82;21143;-61
2023/05/20 03:13:50;;;;;;;7.50;4.45;;;;;;;16.24;70.49;101116.87;1715605;82;21454;-61
2023/05/20 03:16:19;;;;;;;5.20;3.70;;;;;;;16.26;70.26;101120.30;1729312;80;21502;-61
2023/05/20 03:18:49;;;;;;;5.58;4.00;;;;;;;16.28;70.04;101124.23;1653508;87;21130;-61
2023/05/20 03:21:18;;;;;;;4.78;3.90;;;;;;;16.31;69.82;101130.17;1653482;87;21051;-60
2023/05/20 03:23:54;;;;;;;9.28;4.25;;;;;;;16.31;69.64;101128.79;1621547;88;21068;-62
2023/05/20 03:26:24;;;;;;;8.50;4.03;;;;;;;16.34;69.52;101130.27;1621393;88;21102;-62
2023/05/20 03:28:54;;;;;;;7.50;4.30;;;;;;;16.33;69.35;101124.42;1600439;88;21503;-62
2023/05/20 03:31:24;;;;;;;6.75;4.33;;;;;;;16.35;69.11;101128.67;1621535;88;21214;-62
2023/05/20 03:33:55;;;;;;;5.00;4.20;;;;;;;16.36;68.97;101123.98;1621363;88;21004;-61
2023/05/20 03:36:24;;;;;;;5.85;4.28;;;;;;;16.34;69.05;101125.59;1643161;84;21491;-63
2023/05/20 03:38:54;;;;;;;6.58;4.58;;;;;;;16.33;68.94;101125.81;1746539;82;21037;-62
2023/05/20 03:41:25;;;;;;;6.30;4.15;;;;;;;16.32;68.85;101117.20;1653390;86;21054;-61
2023/05/20 03:43:54;;;;;;;7.60;4.33;;;;;;;16.28;68.73;101122.31;1621717;87;21074;-61
2023/05/20 03:46:23;;;;;;;8.50;4.35;;;;;;;16.20;68.99;101131.34;1621675;88;21043;-61
2023/05/20 03:48:52;;;;;;;8.45;4.53;;;;;;;16.15;69.23;101131.46;1621415;88;21039;-61
2023/05/20 03:51:23;;;;;;;4.97;4.05;;;;;;;16.13;69.26;101133.59;1621346;88;21077;-61
2023/05/20 03:53:53;;;;;;;7.75;4.17;;;;;;;16.12;69.26;101132.43;1621332;88;21028;-60
2023/05/20 03:56:22;;;;;;;11.30;4.37;;;;;;;16.07;69.41;101128.93;1621507;88;21079;-62
2023/05/20 03:58:52;;;;;;;6.17;4.03;;;;;;;16.04;69.65;101125.75;1621355;88;21063;-60
2023/05/20 04:01:24;;;;;;;7.87;4.00;;;;;;;15.98;69.93;101121.94;1621346;88;21063;-61
2023/05/20 04:03:52;;;;;;;7.97;4.30;;;;;;;15.99;70.04;101130.55;1621359;88;21091;-62
2023/05/20 04:06:25;;;;;;;6.83;4.47;;;;;;;16.00;70.21;101142.45;1673367;84;21012;-61
2023/05/20 04:08:56;;;;;;;6.65;5.33;;;;;;;16.05;70.28;101145.42;1746580;82;21121;-62
2023/05/20 04:11:25;;;;;;;7.67;4.90;;;;;;;16.05;70.34;101144.88;1746551;82;20994;-61
2023/05/20 04:13:54;;;;;;;9.25;4.97;;;;;;;16.06;70.35;101149.35;1700989;84;21052;-62
2023/05/20 04:16:23;;;;;;;7.30;4.58;;;;;;;16.08;70.38;101141.69;1707931;83;21074;-61
2023/05/20 04:18:53;;;;;;;7.28;4.42;;;;;;;16.11;70.34;101148.17;1715549;84;21031;-62
2023/05/20 04:21:22;;;;;;;6.40;4.40;;;;;;;16.13;70.38;101146.57;1715278;84;21451;-62
2023/05/20 04:23:51;;;;;;;9.05;4.72;;;;;;;16.14;70.49;101152.42;1715353;84;21121;-62
2023/05/20 04:26:21;;;;;;;5.65;4.60;;;;;;;16.17;70.42;101147.30;1715549;82;21082;-62
2023/05/20 04:28:51;;;;;;;9.43;4.67;;;;;;;16.22;70.27;101152.72;1715427;84;21489;-61
2023/05/20 04:31:25;;;;;;;7.20;4.80;;;;;;;16.21;70.24;101149.64;1715560;84;21528;-62
2023/05/20 04:33:53;;;;;;;8.63;4.33;;;;;;;16.25;70.28;101153.67;1715510;84;21038;-62
2023/05/20 04:36:27;;;;;;;9.18;4.92;;;;;;;16.28;70.29;101151.88;1715465;84;21035;-63
2023/05/20 04:38:56;;;;;;;8.58;5.95;;;;;;;16.32;70.35;101149.85;1715605;83;21066;-62
2023/05/20 04:41:26;;;;;;;6.20;4.67;;;;;;;16.37;70.32;101163.03;1715193;82;21039;-60
2023/05/20 04:44:00;;;;;;;10.78;5.28;;;;;;;16.42;70.23;101157.16;1693414;83;21455;-61
2023/05/20 04:46:30;;;;;;;10.05;4.85;;;;;;;16.46;70.18;101163.11;1715411;84;21098;-61
2023/05/20 04:49:00;;;;;;;8.35;5.67;;;;;;;16.52;69.98;101165.00;1611405;88;21521;-61
2023/05/20 04:51:30;;;;;;;7.78;4.80;;;;;;;16.54;69.86;101164.25;1624189;88;21136;-62
2023/05/20 04:54:00;;;;;;;8.93;5.05;;;;;;;16.60;69.81;101161.14;1624342;88;21454;-62
2023/05/20 04:56:30;;;;;;;10.28;5.08;;;;;;;16.69;69.80;101160.70;1603007;88;21577;-61
2023/05/20 04:58:59;;;;;;;9.33;4.65;;;;;;;16.84;69.58;101163.20;1623907;87;21058;-62
2023/05/20 05:01:29;;;;;;;6.87;5.17;;;;;;;17.05;69.21;101162.89;1603137;88;21075;-61
2023/05/20 05:03:58;;;;;;;5.80;5.00;;;;;;;17.37;68.23;101160.98;1624290;88;21090;-61
2023/05/20 05:06:29;;;;;;;10.20;5.40;;;;;;;17.58;67.24;101158.95;1642503;84;21035;-61
2023/05/20 05:09:00;;;;;;;7.67;5.03;;;;;;;17.77;66.52;101159.34;1702768;83;21154;-61
2023/05/20 05:11:29;;;;;;;9.63;5.00;;;;;;;17.95;65.79;101162.17;1624640;88;21054;-62
2023/05/20 05:13:59;;;;;;;6.58;4.78;;;;;;;18.13;65.38;101159.96;1545013;91;21163;-61
2023/05/20 05:16:29;;;;;;;7.10;4.83;;;;;;;18.37;64.78;101158.24;1552311;90;21148;-63
2023/05/20 05:18:59;;;;;;;7.37;4.97;;;;;;;18.61;63.49;101164.28;1570521;90;21051;-61
2023/05/20 05:21:30;;;;;;;6.03;4.72;;;;;;;18.81;62.78;101157.09;1570849;90;21102;-61
2023/05/20 05:23:59;;;;;;;5.47;4.30;;;;;;;18.96;62.35;101160.34;1551351;91;21094;-61
2023/05/20 05:26:29;;;;;;;5.80;4.75;;;;;;;19.19;61.73;101161.52;1551344;91;21059;-62
2023/05/20 05:29:00;;;;;;;7.03;4.75;;;;;;;19.41;60.60;101163.22;1587985;86;21006;-62
2023/05/20 05:31:29;;;;;;;7.45;4.67;;;;;;;19.54;59.69;101161.14;1666467;82;21070;-60
2023/05/20 05:34:00;;;;;;;6.92;4.75;;;;;;;19.63;59.46;101163.88;1708185;83;21090;-61
2023/05/20 05:36:33;;;;;;;7.08;4.37;;;;;;;19.82;58.83;101167.41;1685244;83;21030;-61
2023/05/20 05:39:02;;;;;;;6.80;4.45;;;;;;;19.97;58.28;101175.28;1728668;83;21477;-61
2023/05/20 05:41:33;;;;;;;6.20;4.40;;;;;;;20.18;57.20;101162.19;1624238;86;21497;-60
2023/05/20 05:44:04;;;;;;;5.92;4.28;;;;;;;20.36;56.18;101162.59;1624663;87;21025;-62
2023/05/20 05:46:33;;;;;;;7.05;4.75;;;;;;;20.48;55.77;101166.78;1639141;87;21510;-61
2023/05/20 05:49:03;;;;;;;6.47;4.80;;;;;;;20.60;55.26;101165.37;1646494;87;21085;-62
2023/05/20 05:51:32;;;;;;;8.83;4.47;;;;;;;20.73;54.84;101171.52;1639024;87;21104;-61
2023/05/20 05:54:03;;;;;;;6.53;4.40;;;;;;;20.90;54.01;101166.05;1646267;87;21049;-61
2023/05/20 05:56:32;;;;;;;8.15;4.55;;;;;;;21.03;53.39;101161.58;1639383;87;21050;-61
2023/05/20 05:59:01;;;;;;;6.80;4.47;;;;;;;21.25;52.65;101162.30;1664989;83;21074;-62
2023/05/20 06:01:31;;;;;;;8.23;4.60;;;;;;;21.50;52.18;101168.38;1728465;83;21073;-62
2023/05/20 06:04:01;;;;;;;5.72;4.55;;;;;;;21.63;50.14;101165.27;1728377;81;21469;-61
2023/05/20 06:06:31;;;;;;;6.85;4.08;;;;;;;21.61;50.72;101168.86;1707838;83;21545;-62
2023/05/20 06:09:00;;;;;;;6.97;4.40;;;;;;;21.87;49.85;101165.95;1728452;81;21489;-61
2023/05/20 06:11:30;;;;;;;7.87;4.45;;;;;;;21.92;49.55;101166.58;1728488;83;21076;-62
2023/05/20 06:14:02;;;;;;;7.55;4.50;;;;;;;22.01;49.07;101160.31;1707914;83;21505;-62
2023/05/20 06:16:33;;;;;;;8.93;5.65;;;;;;;22.25;48.55;101154.59;1726093;82;21129;-62
2023/05/20 06:19:04;;;;;;;5.37;4.28;;;;;;;22.41;48.06;101157.34;1715316;82;21075;-61
2023/05/20 06:21:35;;;;;;;6.92;3.80;;;;;;;22.61;47.08;101154.53;1715457;84;21074;-61
2023/05/20 06:24:05;;;;;;;6.35;3.98;;;;;;;22.84;45.96;101156.29;1693585;84;21083;-62
2023/05/20 06:26:36;;;;;;;5.33;3.90;;;;;;;23.04;45.65;101150.39;1715375;83;21058;-62
2023/05/20 06:29:06;;;;;;;5.67;3.67;;;;;;;23.15;45.26;101151.89;1693448;83;21114;-61
2023/05/20 06:31:35;;;;;;;8.08;3.50;;;;;;;23.33;44.90;101150.98;1693238;83;21459;-61
2023/05/20 06:34:04;;;;;;;7.00;3.70;;;;;;;23.61;43.61;101143.47;1715353;84;21045;-61
2023/05/20 06:36:33;;;;;;;7.72;3.70;;;;;;;23.83;43.19;101147.56;1715381;84;21493;-61
2023/05/20 06:39:05;;;;;;;6.90;4.00;;;;;;;24.13;42.51;101149.78;1715291;83;21075;-61
2023/05/20 06:41:35;;;;;;;5.78;4.00;;;;;;;24.18;41.25;101152.62;1715306;82;21469;-61
2023/05/20 06:44:06;;;;;;;7.12;3.90;;;;;;;24.07;41.57;101155.06;1714919;81;21125;-61
2023/05/20 06:46:38;;;;;;;9.75;3.90;;;;;;;24.17;41.33;101151.77;1713498;83;21045;-61
2023/05/20 06:49:10;;;;;;;9.68;4.17;;;;;;;24.27;41.08;101139.83;1715511;81;21039;-62
2023/05/20 06:51:40;;;;;;;8.80;3.92;;;;;;;24.41;40.75;101141.02;1715317;84;21545;-62
2023/05/20 06:54:09;;;;;;;6.60;3.62;;;;;;;24.62;40.19;101141.97;1632611;86;21118;-62
2023/05/20 06:56:39;;;;;;;12.33;4.35;;;;;;;24.70;39.75;101141.45;1623069;88;21157;-62
2023/05/20 06:59:09;;;;;;;17.95;5.12;;;;;;;24.74;39.47;101148.22;1613343;88;21018;-61
2023/05/20 07:01:40;;;;;;;6.90;4.75;;;;;;;24.80;39.53;101147.69;1546763;93;21125;-62
2023/05/20 07:04:11;;;;;;;7.33;4.30;;;;;;;24.91;38.90;101140.44;1541347;92;21083;-62
2023/05/20 07:06:41;;;;;;;8.38;4.50;;;;;;;24.88;38.68;101142.39;1541024;93;21097;-61
2023/05/20 07:09:11;;;;;;;12.07;4.70;;;;;;;24.87;38.26;101144.91;1497041;94;21129;-62
2023/05/20 07:11:40;;;;;;;12.18;4.85;;;;;;;24.79;38.43;101145.44;1512811;91;21062;-62
2023/05/20 07:14:10;;;;;;;8.03;4.80;;;;;;;24.84;37.97;101145.46;1566055;90;21567;-63
2023/05/20 07:16:41;;;;;;;9.40;4.87;;;;;;;24.83;38.04;101135.92;1567519;90;21147;-61
2023/05/20 07:19:11;;;;;;;7.78;4.95;;;;;;;24.88;38.04;101145.20;1576957;90;21113;-61
2023/05/20 07:21:42;;;;;;;7.55;4.75;;;;;;;24.93;37.81;101143.81;1593909;90;21097;-62
2023/05/20 07:24:15;;;;;;;7.70;5.17;;;;;;;25.01;37.60;101146.67;1594146;89;21085;-61
2023/05/20 07:26:46;;;;;;;15.10;5.35;;;;;;;25.16;36.79;101153.72;1649412;83;21051;-61
2023/05/20 07:29:15;;;;;;;9.35;5.03;;;;;;;25.25;36.69;101149.81;1723252;83;21173;-62
2023/05/20 07:31:45;;;;;;;6.92;5.20;;;;;;;25.32;36.41;101145.34;1700802;83;21062;-63
2023/05/20 07:34:17;;;;;;;12.05;4.92;;;;;;;25.43;35.98;101142.86;1700906;83;21078;-63
2023/05/20 07:36:46;;;;;;;12.50;4.97;;;;;;;25.46;35.78;101150.73;1723349;82;21010;-62
2023/05/20 07:39:16;;;;;;;7.90;5.50;;;;;;;25.54;35.53;101153.82;1723147;83;21071;-61
2023/05/20 07:41:45;;;;;;;9.23;5.00;;;;;;;25.62;35.41;101144.56;1723259;82;21054;-61
2023/05/20 07:44:17;;;;;;;9.53;5.78;;;;;;;25.67;35.12;101141.80;1723376;82;21118;-63
2023/05/20 07:46:48;;;;;;;13.55;6.35;;;;;;;25.85;34.37;101140.67;1639681;86;21576;-61
2023/05/20 07:49:20;;;;;;;12.88;5.55;;;;;;;25.93;34.05;101147.68;1639517;87;21074;-60
2023/05/20 07:51:49;;;;;;;10.20;5.05;;;;;;;25.97;33.99;101145.99;1646408;87;21074;-61
2023/05/20 07:54:18;;;;;;;12.70;5.20;;;;;;;26.03;33.52;101144.05;1639623;86;21121;-61
2023/05/20 07:56:50;;;;;;;7.72;5.10;;;;;;;26.06;33.39;101146.30;1637952;86;21022;-64
2023/05/20 07:59:20;;;;;;;8.73;4.87;;;;;;;26.11;33.35;101144.88;1616975;87;21063;-62
2023/05/20 08:01:51;;;;;;;13.85;4.78;;;;;;;26.07;33.03;101143.20;1637918;87;21126;-65
2023/05/20 08:04:23;;;;;;;8.33;4.50;;;;;;;26.06;33.03;101149.95;1650690;85;21922;-62
2023/05/20 08:06:54;;;;;;;9.75;3.95;;;;;;;26.10;32.41;101142.64;1689938;85;21487;-66
2023/05/20 08:09:25;;;;;;;8.05;3.98;;;;;;;26.09;32.15;101139.55;1689377;85;21120;-64
2023/05/20 08:11:56;;;;;;;14.58;4.17;;;;;;;26.20;32.41;101143.19;1749123;80;21106;-63
2023/05/20 08:14:25;;;;;;;11.85;3.67;;;;;;;26.32;31.74;101150.74;1730145;81;21045;-63
2023/05/20 08:16:54;;;;;;;8.58;3.95;;;;;;;26.41;31.61;101136.98;1706132;82;21025;-62
2023/05/20 08:19:24;;;;;;;5.83;3.77;;;;;;;26.47;31.27;101134.43;1712044;82;21025;-63
2023/05/20 08:21:53;;;;;;;7.35;3.12;;;;;;;26.54;31.06;101132.16;1698524;84;21062;-64
2023/05/20 08:24:22;;;;;;;9.35;3.33;;;;;;;26.58;30.13;101136.08;1698397;83;21002;-64
2023/05/20 08:26:52;;;;;;;6.00;3.40;;;;;;;26.49;30.61;101133.58;1713999;82;21516;-62
2023/05/20 08:29:22;;;;;;;7.25;3.67;;;;;;;26.50;30.77;101140.32;1699150;83;21528;-64
2023/05/20 08:31:52;;;;;;;4.25;3.55;;;;;;;26.57;31.12;101128.77;1705413;84;21069;-63
2023/05/20 08:34:21;;;;;;;8.38;3.70;;;;;;;26.73;31.05;101139.42;1627218;87;21581;-63
2023/05/20 08:36:52;;;;;;;8.90;3.40;;;;;;;26.77;30.98;101138.56;1628264;88;21037;-64
2023/05/20 08:39:22;;;;;;;7.70;3.50;;;;;;;26.84;30.73;101132.63;1628159;88;21120;-71
2023/05/20 08:41:51;;;;;;;6.37;3.37;;;;;;;26.89;30.64;101143.01;1628502;88;21133;-62
2023/05/20 08:44:20;;;;;;;6.05;3.30;;;;;;;26.80;30.52;101132.92;1628529;87;21106;-67
2023/05/20 08:46:49;;;;;;;6.30;3.45;;;;;;;26.66;30.86;101136.92;1628164;87;21077;-69
2023/05/20 08:49:19;;;;;;;5.42;3.40;;;;;;;26.56;30.86;101131.30;1628117;87;21097;-69
2023/05/20 08:51:48;;;;;;;8.13;3.67;;;;;;;26.57;30.64;101123.15;1628336;88;21073;-65
2023/05/20 08:54:16;;;;;;;6.15;3.20;;;;;;;26.72;30.54;101129.31;1628081;88;21525;-70
2023/05/20 08:56:45;;;;;;;8.50;3.62;;;;;;;26.70;30.71;101129.59;1628432;88;21066;-69
2023/05/20 08:59:14;;;;;;;14.03;4.72;;;;;;;26.69;30.62;101118.64;1680838;83;21033;-72
2023/05/20 09:01:44;;;;;;;6.35;3.17;;;;;;;26.69;30.64;101119.48;1698627;83;21546;-69
2023/05/20 09:04:16;;;;;;;6.12;3.05;;;;;;;26.64;30.36;101110.19;1636175;86;21101;-69
2023/05/20 09:06:45;;;;;;;11.10;3.50;;;;;;;26.54;30.10;101116.70;1630679;88;21037;-63
2023/05/20 09:09:14;;;;;;;7.28;3.12;;;;;;;26.44;30.31;101122.36;1640372;87;21085;-67
2023/05/20 09:11:44;;;;;;;5.15;3.17;;;;;;;26.35;30.00;101121.26;1631089;86;21482;-63
2023/05/20 09:14:14;;;;;;;7.90;3.20;;;;;;;26.21;30.23;101130.25;1603087;88;21098;-65
2023/05/20 09:16:45;;;;;;;7.78;2.90;;;;;;;25.88;30.61;101118.20;1631330;86;21053;-68
2023/05/20 09:19:15;;;;;;;5.22;3.10;;;;;;;25.88;30.61;101118.20;1641250;86;22026;-69
2023/05/20 09:21:46;;;;;;;9.55;2.87;;;;;;;25.75;30.58;101120.17;1683034;82;20994;-67
2023/05/20 09:24:15;;;;;;;9.15;3.10;;;;;;;25.54;30.79;101129.13;1725625;82;21050;-70
2023/05/20 09:26:44;;;;;;;4.72;2.62;;;;;;;25.34;31.14;101127.11;1749567;81;21093;-66
2023/05/20 09:29:13;;;;;;;14.58;3.20;;;;;;;25.29;31.34;101127.10;1743421;81;20978;-68
2023/05/20 09:31:43;;;;;;;5.80;2.80;;;;;;;25.22;31.36;101119.52;1743828;82;21014;-67
2023/05/20 09:34:12;;;;;;;5.62;2.70;;;;;;;25.09;31.85;101117.24;1743531;82;21480;-66
2023/05/20 09:36:44;;;;;;;4.33;2.47;;;;;;;25.08;31.54;101127.63;1743562;82;20982;-68
2023/05/20 09:39:16;;;;;;;5.83;2.60;;;;;;;25.07;31.59;101127.89;1743929;81;21077;-64
2023/05/20 09:42:11;;;;;;;13.62;4.15;;;;;;;25.02;31.52;101118.06;1743977;82;21006;-65
2023/05/20 09:44:41;;;;;;;6.85;2.83;;;;;;;24.98;31.36;101117.78;1743754;82;21449;-62
2023/05/20 09:47:10;;;;;;;4.78;2.60;;;;;;;24.93;31.48;101140.16;1743599;82;20990;-63
2023/05/20 09:49:40;;;;;;;8.43;2.80;;;;;;;24.80;31.58;101119.09;1743762;82;21041;-67
2023/05/20 09:52:10;;;;;;;7.53;2.92;;;;;;;24.67;31.80;101112.56;1743597;82;21417;-66
2023/05/20 09:54:40;;;;;;;8.20;3.10;;;;;;;24.64;31.95;101118.72;1725297;82;21003;-68
2023/05/20 09:57:10;;;;;;;6.15;2.45;;;;;;;24.63;32.62;101111.42;1743550;82;21038;-70
2023/05/20 09:59:41;;;;;;;5.80;2.42;;;;;;;24.60;32.50;101112.81;1743850;81;21508;-67
2023/05/20 10:02:10;;;;;;;9.40;2.80;;;;;;;24.55;32.44;101117.56;1743800;81;20987;-64
2023/05/20 10:04:43;;;;;;;9.48;3.70;;;;;;;24.50;32.49;101116.13;1737881;82;21078;-69
2023/05/20 10:07:34;;;;;;;13.18;3.20;;;;;;;24.38;32.84;101114.11;1728187;83;21046;-67
2023/05/20 10:10:19;;;;;;;5.90;2.33;;;;;;;24.28;33.07;101121.91;1727419;83;21133;-67
2023/05/20 10:13:17;;;;;;;10.72;3.12;;;;;;;24.14;33.55;101114.51;1728249;82;21438;-67
2023/05/20 10:16:00;;;;;;;4.40;2.40;;;;;;;24.03;33.38;101115.52;1708342;83;21039;-66
2023/05/20 10:18:44;;;;;;;4.78;2.35;;;;;;;23.92;33.28;101115.16;1720858;81;21289;-69
2023/05/20 10:21:21;;;;;;;7.55;2.33;;;;;;;23.87;33.38;101103.94;1694335;83;21522;-66
2023/05/20 10:23:53;;;;;;;6.97;2.80;;;;;;;23.83;33.61;101113.42;1722472;83;21065;-66
2023/05/20 10:26:22;;;;;;;12.30;3.42;;;;;;;23.77;33.67;101119.25;1617266;88;21093;-68
2023/05/20 10:28:51;;;;;;;4.65;2.85;;;;;;;23.64;33.89;101117.20;1616912;89;21058;-69
2023/05/20 10:31:24;;;;;;;5.95;2.50;;;;;;;23.58;34.21;101106.23;1617213;89;21602;-67
2023/05/20 10:33:54;;;;;;;6.60;2.55;;;;;;;23.58;34.10;101100.08;1617039;89;21054;-67
2023/05/20 10:36:26;;;;;;;14.75;3.20;;;;;;;23.61;34.35;101098.70;1617226;87;21482;-67
2023/05/20 10:38:58;;;;;;;7.62;2.52;;;;;;;23.62;34.00;101099.83;1616989;87;21157;-67
2023/05/20 10:41:28;;;;;;;5.67;2.60;;;;;;;23.56;34.29;101090.27;1616984;87;21475;-67
2023/05/20 10:44:04;;;;;;;3.20;2.30;;;;;;;23.51;34.65;101109.22;1598752;89;21526;-69
2023/05/20 10:46:33;;;;;;;4.20;2.53;;;;;;;23.48;34.70;101098.56;1617267;87;21054;-66
2023/05/20 10:49:04;;;;;;;8.90;2.50;;;;;;;23.47;34.28;101098.83;1613973;89;21030;-66
2023/05/20 10:51:35;;;;;;;8.85;2.80;;;;;;;23.48;33.73;101090.16;1617005;89;21058;-68
2023/05/20 10:54:05;;;;;;;8.38;2.70;;;;;;;23.44;33.67;101094.61;1617230;87;21571;-67
2023/05/20 10:56:36;;;;;;;4.08;2.58;;;;;;;23.40;33.91;101099.02;1617032;87;21062;-66
2023/05/20 10:59:05;;;;;;;4.80;2.47;;;;;;;23.40;33.82;101100.41;1616907;87;21101;-67
2023/05/20 11:01:35;;;;;;;7.83;3.35;;;;;;;23.37;34.06;101090.60;1638758;85;21101;-65
2023/05/20 11:04:05;;;;;;;6.87;3.70;;;;;;;23.37;33.98;101092.00;1718224;82;21036;-67
2023/05/20 11:06:35;;;;;;;5.28;3.37;;;;;;;23.37;34.08;101088.36;1691430;85;21041;-66
2023/05/20 11:09:05;;;;;;;4.10;2.47;;;;;;;23.39;34.27;101088.94;1691223;85;21049;-68
2023/05/20 11:11:37;;;;;;;7.22;2.58;;;;;;;23.43;33.95;101081.73;1691256;85;21096;-66
2023/05/20 11:14:05;;;;;;;6.20;2.47;;;;;;;23.40;33.79;101085.03;1691322;85;21057;-66
2023/05/20 11:16:35;;;;;;;4.20;2.40;;;;;;;23.39;33.67;101099.57;1691197;85;21084;-68
2023/05/20 11:19:07;;;;;;;4.10;2.30;;;;;;;23.34;33.84;101091.69;1704433;83;21126;-69
2023/05/20 11:21:44;;;;;;;6.45;2.70;;;;;;;23.34;33.55;101084.70;1664835;84;21079;-67
2023/05/20 11:24:14;;;;;;;6.92;2.40;;;;;;;23.32;33.63;101081.32;1712096;83;21079;-67
2023/05/20 11:26:43;;;;;;;5.20;2.20;;;;;;;23.33;33.91;101091.40;1712118;84;21019;-68
2023/05/20 11:29:11;;;;;;;7.50;2.83;;;;;;;23.33;33.87;101080.21;1712015;84;21082;-69
2023/05/20 11:31:41;;;;;;;4.62;2.33;;;;;;;23.29;34.21;101091.64;1711891;84;21038;-67
2023/05/20 11:34:11;;;;;;;6.10;3.20;;;;;;;23.31;34.19;101074.04;1707966;83;21011;-68
2023/05/20 11:36:43;;;;;;;3.95;2.37;;;;;;;23.31;34.61;101095.86;1712292;84;21105;-67
2023/05/20 11:39:12;;;;;;;5.05;2.30;;;;;;;23.36;33.73;101093.11;1712098;84;21003;-68